logo
Rechercher aéroport 
image banner adimage banner adimage banner ad
image banner ad

CSP7 - Val-D'or (St-Pierre)

Situé à , Canada

ICAO - , IATA -

Données fournies par Airmate  

Information générale

Coordonnées: N48°4'39" W77°52'7"
Élévation : 1000 feet MSL.
Variation magnétique : -13° East
Voir autres Aéroports à Quebec

Données opérationnelles

Special qualification required
Heure actuelle UTC:
Heure actuelle locale:
Météo à : CYVO - Val-D'or ( 7 km )
METAR: CYVO 040400Z AUTO 25004KT 230V290 9SM CLR M34/M37 A3028 RMK SLP312
TAF: TAF CYVO 062340Z 0700/0712 17008KT P6SM FEW240 FM071000 17012KT P6SM FEW025 BKN150 RMK NXT FCST BY 070600Z
Voir NOTAMs / SUP AIP / TFR affectant cet aéroport [VIEW]
Fréquences de communication: [VIEW]

Pistes:

Identifiant RWYQFULongueur (ft)Largeur (ft)SurfaceLDA (ft)
W00WATER

Coordonnées de l'aéroport

Adresse: Canada

Vue satellite de CSP7